createdAt,value
2018-10-19T00:02:11.845Z,12.18
2018-10-19T00:04:40.142Z,12.18
2018-10-19T00:07:08.569Z,12.16
2018-10-19T00:09:36.863Z,12.06
2018-10-19T00:12:05.529Z,11.99
2018-10-19T00:14:33.929Z,12.01
2018-10-19T00:17:02.285Z,12.01
2018-10-19T00:19:30.699Z,12.02
2018-10-19T00:21:59.037Z,12.04
2018-10-19T00:24:27.472Z,12.04
2018-10-19T00:26:55.920Z,11.98
2018-10-19T00:29:24.381Z,11.98
2018-10-19T00:31:52.687Z,11.97
2018-10-19T00:34:21.189Z,11.87
2018-10-19T00:36:49.561Z,11.86
2018-10-19T00:39:17.853Z,11.89
2018-10-19T00:41:46.341Z,11.92
2018-10-19T00:44:14.745Z,11.94
2018-10-19T00:46:43.107Z,11.97
2018-10-19T00:49:11.487Z,11.94
2018-10-19T00:51:40.063Z,11.94
2018-10-19T00:54:08.713Z,11.87
2018-10-19T00:56:37.139Z,11.81
2018-10-19T00:59:05.852Z,11.74
2018-10-19T01:01:34.261Z,11.65
2018-10-19T01:04:02.779Z,11.65
2018-10-19T01:06:31.177Z,11.58
2018-10-19T01:08:59.547Z,11.56
2018-10-19T01:11:27.924Z,11.53
2018-10-19T01:13:56.420Z,11.35
2018-10-19T01:16:24.773Z,11.08
2018-10-19T01:18:53.139Z,10.87
2018-10-19T01:21:21.438Z,10.67
2018-10-19T01:23:49.802Z,10.57
2018-10-19T01:26:18.194Z,10.52
2018-10-19T01:28:46.595Z,10.48
2018-10-19T01:31:15.011Z,10.41
2018-10-19T01:33:43.491Z,10.40
2018-10-19T01:36:11.835Z,10.31
2018-10-19T01:38:40.704Z,10.29
2018-10-19T01:41:09.090Z,10.31
2018-10-19T01:43:37.647Z,10.32
2018-10-19T01:46:06.290Z,10.30
2018-10-19T01:48:34.738Z,10.28
2018-10-19T01:51:03.143Z,10.32
2018-10-19T01:53:31.538Z,10.43
2018-10-19T01:56:00.123Z,10.49
2018-10-19T01:58:28.742Z,10.56
2018-10-19T02:00:57.114Z,10.63
2018-10-19T02:03:25.483Z,10.70
2018-10-19T02:05:53.960Z,10.73
2018-10-19T02:08:22.241Z,10.80
2018-10-19T02:10:50.642Z,10.82
2018-10-19T02:13:19.226Z,10.69
2018-10-19T02:15:47.763Z,10.59
2018-10-19T02:18:16.066Z,10.58
2018-10-19T02:20:44.567Z,10.61
2018-10-19T02:23:12.995Z,10.53
2018-10-19T02:25:41.398Z,10.36
2018-10-19T02:28:09.702Z,10.22
2018-10-19T02:30:38.063Z,10.09
2018-10-19T02:33:06.531Z,10.03
2018-10-19T02:35:34.851Z,9.97
2018-10-19T02:38:03.226Z,9.98
2018-10-19T02:40:31.622Z,10.09
2018-10-19T02:43:00.087Z,10.08
2018-10-19T02:45:28.395Z,10.11
2018-10-19T02:47:56.802Z,10.18
2018-10-19T02:50:25.107Z,10.25
2018-10-19T02:52:53.501Z,10.24
2018-10-19T02:55:21.859Z,10.22
2018-10-19T02:57:50.337Z,10.24
2018-10-19T03:00:18.620Z,10.26
2018-10-19T03:02:47.089Z,10.28
2018-10-19T03:05:15.573Z,10.28
2018-10-19T03:07:43.813Z,10.27
2018-10-19T03:10:12.229Z,10.17
2018-10-19T03:12:40.571Z,10.04
2018-10-19T03:15:09.967Z,10.05
2018-10-19T03:17:38.503Z,10.09
2018-10-19T03:20:07.925Z,10.05
2018-10-19T03:22:36.865Z,10.09
2018-10-19T03:25:05.271Z,10.02
2018-10-19T03:27:33.778Z,9.90
2018-10-19T03:30:02.196Z,9.83
2018-10-19T03:32:30.623Z,9.77
2018-10-19T03:34:59.096Z,9.69
2018-10-19T03:37:27.407Z,9.63
2018-10-19T03:39:55.823Z,9.65
2018-10-19T03:42:24.139Z,9.63
2018-10-19T03:44:52.512Z,9.51
2018-10-19T03:47:20.868Z,9.44
2018-10-19T03:49:49.296Z,9.40
2018-10-19T03:52:17.625Z,9.35
2018-10-19T03:54:45.907Z,9.29
2018-10-19T03:57:14.455Z,9.28
2018-10-19T03:59:42.860Z,9.26
2018-10-19T04:02:11.311Z,9.20
2018-10-19T04:04:39.753Z,9.14
2018-10-19T04:07:08.247Z,9.12
2018-10-19T04:09:42.835Z,9.16
2018-10-19T04:12:11.099Z,9.25
2018-10-19T04:14:39.685Z,9.26
2018-10-19T04:17:08.202Z,9.29
2018-10-19T04:19:36.451Z,9.34
2018-10-19T04:22:05.029Z,9.46
2018-10-19T04:24:33.339Z,9.57
2018-10-19T04:27:01.925Z,9.59
2018-10-19T04:29:30.261Z,9.60
2018-10-19T04:31:58.661Z,9.64
2018-10-19T04:34:27.098Z,9.70
2018-10-19T04:37:04.890Z,9.74
2018-10-19T04:39:33.734Z,9.76
2018-10-19T04:42:02.841Z,9.75
2018-10-19T04:44:31.058Z,9.60
2018-10-19T04:46:59.645Z,9.55
2018-10-19T04:49:28.320Z,9.52
2018-10-19T04:51:56.657Z,9.42
2018-10-19T04:54:24.999Z,9.37
2018-10-19T04:56:53.376Z,9.44
2018-10-19T04:59:21.874Z,9.51
2018-10-19T05:01:50.421Z,9.53
2018-10-19T05:04:18.715Z,9.50
2018-10-19T05:06:47.231Z,9.56
2018-10-19T05:09:15.570Z,9.63
2018-10-19T05:11:43.962Z,9.62
2018-10-19T05:14:12.537Z,9.52
2018-10-19T05:16:40.826Z,9.49
2018-10-19T05:19:09.378Z,9.51
2018-10-19T05:21:38.167Z,9.56
2018-10-19T05:24:06.570Z,9.59
2018-10-19T05:26:34.967Z,9.59
2018-10-19T05:29:03.410Z,9.62
2018-10-19T05:31:31.697Z,9.65
2018-10-19T05:34:00.078Z,9.61
2018-10-19T05:36:28.504Z,9.61
2018-10-19T05:38:56.809Z,9.62
2018-10-19T05:41:25.121Z,9.62
2018-10-19T05:43:53.541Z,9.54
2018-10-19T05:46:21.866Z,9.41
2018-10-19T05:48:50.155Z,9.33
2018-10-19T05:51:18.490Z,9.36
2018-10-19T05:53:46.803Z,9.47
2018-10-19T05:56:15.111Z,9.53
2018-10-19T05:58:43.445Z,9.59
2018-10-19T06:01:11.991Z,9.62
2018-10-19T06:03:40.320Z,9.57
2018-10-19T06:06:08.835Z,9.51
2018-10-19T06:08:37.294Z,9.44
2018-10-19T06:11:06.195Z,9.28
2018-10-19T06:13:34.505Z,9.23
2018-10-19T06:16:02.830Z,9.20
2018-10-19T06:18:31.378Z,9.17
2018-10-19T06:20:59.745Z,9.32
2018-10-19T06:23:28.039Z,9.36
2018-10-19T06:25:56.333Z,9.30
2018-10-19T06:28:24.643Z,9.22
2018-10-19T06:30:53.104Z,9.19
2018-10-19T06:33:21.471Z,9.17
2018-10-19T06:35:49.890Z,9.29
2018-10-19T06:38:18.198Z,9.45
2018-10-19T06:40:46.625Z,9.55
2018-10-19T06:43:14.826Z,9.62
2018-10-19T06:45:43.086Z,9.69
2018-10-19T06:48:11.434Z,9.78
2018-10-19T06:50:39.713Z,9.79
2018-10-19T06:53:08.040Z,9.81
2018-10-19T06:55:36.328Z,9.88
2018-10-19T06:58:05.258Z,9.85
2018-10-19T07:00:33.638Z,9.86
2018-10-19T07:03:02.030Z,9.94
2018-10-19T07:05:30.405Z,10.00
2018-10-19T07:07:58.844Z,10.10
2018-10-19T07:10:27.231Z,10.20
2018-10-19T07:12:55.555Z,10.28
2018-10-19T07:15:23.849Z,10.38
2018-10-19T07:17:52.194Z,10.38
2018-10-19T07:20:20.787Z,10.35
2018-10-19T07:22:49.106Z,10.35
2018-10-19T07:25:17.416Z,10.39
2018-10-19T07:27:45.863Z,10.39
2018-10-19T07:30:14.249Z,10.41
2018-10-19T07:32:42.646Z,10.50
2018-10-19T07:35:11.006Z,10.55
2018-10-19T07:37:39.315Z,10.62
2018-10-19T07:40:07.818Z,10.69
2018-10-19T07:42:36.274Z,10.75
2018-10-19T07:45:04.695Z,10.83
2018-10-19T07:47:33.070Z,10.86
2018-10-19T07:50:01.596Z,10.92
2018-10-19T07:52:29.842Z,10.87
2018-10-19T07:54:58.169Z,10.89
2018-10-19T07:57:26.595Z,10.95
2018-10-19T07:59:54.932Z,10.91
2018-10-19T08:02:23.443Z,10.92
2018-10-19T08:04:51.771Z,11.05
2018-10-19T08:07:20.180Z,11.08
2018-10-19T08:09:48.730Z,11.13
2018-10-19T08:12:17.154Z,11.12
2018-10-19T08:14:45.469Z,11.14
2018-10-19T08:17:13.863Z,11.27
2018-10-19T08:19:42.227Z,11.33
2018-10-19T08:22:10.649Z,11.41
2018-10-19T08:24:39.187Z,11.49
2018-10-19T08:27:07.791Z,11.56
2018-10-19T08:29:36.295Z,11.55
2018-10-19T08:32:05.385Z,11.55
2018-10-19T08:34:33.823Z,11.60
2018-10-19T08:37:02.311Z,11.61
2018-10-19T08:39:30.627Z,11.63
2018-10-19T08:41:59.315Z,11.67
2018-10-19T08:44:27.877Z,11.78
2018-10-19T08:46:56.297Z,11.86
2018-10-19T08:49:24.699Z,11.87
2018-10-19T08:51:53.020Z,11.93
2018-10-19T08:54:21.593Z,11.94
2018-10-19T08:56:50.089Z,11.98
2018-10-19T08:59:18.533Z,12.05
2018-10-19T09:01:46.943Z,12.12
2018-10-19T09:04:15.564Z,12.16
2018-10-19T09:06:43.818Z,12.21
2018-10-19T09:09:12.508Z,12.28
2018-10-19T09:11:41.442Z,12.29
2018-10-19T09:14:20.868Z,12.22
2018-10-19T09:16:49.614Z,12.14
2018-10-19T09:19:18.167Z,12.08
2018-10-19T09:21:46.457Z,12.00
2018-10-19T09:24:14.766Z,11.93
2018-10-19T09:26:44.287Z,11.99
2018-10-19T09:29:13.107Z,12.05
2018-10-19T09:31:41.631Z,12.13
2018-10-19T09:34:10.011Z,12.25
2018-10-19T09:36:38.450Z,12.33
2018-10-19T09:39:10.065Z,12.40
2018-10-19T09:41:38.419Z,12.47
2018-10-19T09:44:06.744Z,12.54
2018-10-19T09:46:38.150Z,12.60
2018-10-19T09:49:07.359Z,12.60
2018-10-19T09:51:36.268Z,12.63
2018-10-19T09:54:04.773Z,12.68
2018-10-19T09:56:33.374Z,12.71
2018-10-19T09:59:02.312Z,12.74
2018-10-19T10:01:30.929Z,12.78
2018-10-19T10:03:59.457Z,12.83
2018-10-19T10:06:28.271Z,12.83
2018-10-19T10:08:57.197Z,12.86
2018-10-19T10:11:25.511Z,12.86
2018-10-19T10:13:54.372Z,12.90
2018-10-19T10:16:22.993Z,12.95
2018-10-19T10:18:51.390Z,12.98
2018-10-19T10:21:19.735Z,13.05
2018-10-19T10:23:48.255Z,13.06
2018-10-19T10:26:16.623Z,13.10
2018-10-19T10:28:44.991Z,13.10
2018-10-19T10:31:13.447Z,13.10
2018-10-19T10:33:41.754Z,13.12
2018-10-19T10:36:10.434Z,13.12
2018-10-19T10:38:38.856Z,13.13
2018-10-19T10:41:07.326Z,13.14
2018-10-19T10:43:35.699Z,13.11
2018-10-19T10:46:04.144Z,13.14
2018-10-19T10:48:32.410Z,13.08
2018-10-19T10:51:01.066Z,13.00
2018-10-19T10:53:29.426Z,13.04
2018-10-19T10:55:57.855Z,13.10
2018-10-19T10:58:26.235Z,13.12
2018-10-19T11:00:55.093Z,13.13
2018-10-19T11:03:23.429Z,13.20
2018-10-19T11:05:51.811Z,13.22
2018-10-19T11:08:20.303Z,13.13
2018-10-19T11:10:48.630Z,13.05
2018-10-19T11:13:17.147Z,13.03
2018-10-19T11:15:45.642Z,12.99
2018-10-19T11:18:14.078Z,12.97
2018-10-19T11:20:42.454Z,13.06
2018-10-19T11:23:10.790Z,13.12
2018-10-19T11:25:39.126Z,13.17
2018-10-19T11:28:07.487Z,13.27
2018-10-19T11:30:35.778Z,13.33
2018-10-19T11:33:04.154Z,13.36
2018-10-19T11:35:32.526Z,13.26
2018-10-19T11:38:01.012Z,13.16
2018-10-19T11:40:36.310Z,13.08
2018-10-19T11:43:05.044Z,13.08
2018-10-19T11:45:34.291Z,13.16
2018-10-19T11:48:02.614Z,13.30
2018-10-19T11:50:31.029Z,13.36
2018-10-19T11:52:59.351Z,13.40
2018-10-19T11:55:27.694Z,13.56
2018-10-19T11:57:56.065Z,13.70
2018-10-19T12:00:24.418Z,13.82
2018-10-19T12:02:52.799Z,13.94
2018-10-19T12:05:21.162Z,14.02
2018-10-19T12:07:49.554Z,14.12
2018-10-19T12:10:17.906Z,14.25
2018-10-19T12:12:48.351Z,14.38
2018-10-19T12:15:35.230Z,14.45
2018-10-19T12:18:09.425Z,14.51
2018-10-19T12:20:38.151Z,14.56
2018-10-19T12:23:06.538Z,14.61
2018-10-19T12:25:34.871Z,14.71
2018-10-19T12:28:03.320Z,14.83
2018-10-19T12:30:31.621Z,14.97
2018-10-19T12:33:00.015Z,15.10
2018-10-19T12:35:28.499Z,15.23
2018-10-19T12:37:56.794Z,15.32
2018-10-19T12:40:25.160Z,15.34
2018-10-19T12:42:53.509Z,15.37
2018-10-19T12:46:33.813Z,15.39
2018-10-19T12:49:02.228Z,15.47
2018-10-19T12:51:30.586Z,15.50
2018-10-19T12:53:59.090Z,15.60
2018-10-19T12:56:27.348Z,15.72
2018-10-19T12:58:56.142Z,15.78
2018-10-19T13:01:25.719Z,15.91
2018-10-19T13:03:54.119Z,15.98
2018-10-19T13:06:22.612Z,16.02
2018-10-19T13:08:51.383Z,16.07
2018-10-19T13:11:19.772Z,16.05
2018-10-19T13:13:48.151Z,16.09
2018-10-19T13:16:16.722Z,16.11
2018-10-19T13:18:44.954Z,16.20
2018-10-19T13:21:13.537Z,16.32
2018-10-19T13:23:41.858Z,16.39
2018-10-19T13:26:44.231Z,16.41
2018-10-19T13:29:39.599Z,16.34
2018-10-19T13:32:07.978Z,16.34
2018-10-19T13:34:36.443Z,16.46
2018-10-19T13:37:04.877Z,16.54
2018-10-19T13:39:33.262Z,16.58
2018-10-19T13:42:01.647Z,16.60
2018-10-19T13:44:29.975Z,16.66
2018-10-19T13:46:58.449Z,16.70
2018-10-19T13:49:26.802Z,16.69
2018-10-19T13:51:55.154Z,16.75
2018-10-19T13:54:23.626Z,16.83
2018-10-19T13:56:51.998Z,16.86
2018-10-19T13:59:20.308Z,16.84
2018-10-19T14:01:48.672Z,16.87
2018-10-19T14:04:17.031Z,16.94
2018-10-19T14:06:45.526Z,16.94
2018-10-19T14:09:13.921Z,16.93
2018-10-19T14:11:42.214Z,16.91
2018-10-19T14:14:10.554Z,16.94
2018-10-19T14:16:39.334Z,16.98
2018-10-19T14:19:07.901Z,16.93
2018-10-19T14:21:36.193Z,16.99
2018-10-19T14:24:04.602Z,16.96
2018-10-19T14:26:33.313Z,16.87
2018-10-19T14:29:01.613Z,16.84
2018-10-19T14:31:29.910Z,16.89
2018-10-19T14:33:58.266Z,16.95
2018-10-19T14:36:26.606Z,16.90
2018-10-19T14:38:54.974Z,16.88
2018-10-19T14:41:23.275Z,16.88
2018-10-19T14:43:51.706Z,16.87
2018-10-19T14:46:20.178Z,16.83
2018-10-19T14:48:48.513Z,16.80
2018-10-19T14:51:16.939Z,16.81
2018-10-19T14:53:45.219Z,16.81
2018-10-19T14:56:13.714Z,16.72
2018-10-19T14:58:42.182Z,16.64
2018-10-19T15:01:10.546Z,16.60
2018-10-19T15:03:38.970Z,16.59
2018-10-19T15:06:07.315Z,16.56
2018-10-19T15:08:35.706Z,16.46
2018-10-19T15:11:04.306Z,16.37
2018-10-19T15:13:32.462Z,16.30
2018-10-19T15:16:00.922Z,16.23
2018-10-19T15:18:29.491Z,16.17
2018-10-19T15:20:57.795Z,16.16
2018-10-19T15:23:26.210Z,16.13
2018-10-19T15:25:54.681Z,16.08
2018-10-19T15:28:22.972Z,16.05
2018-10-19T15:30:51.306Z,16.01
2018-10-19T15:33:20.004Z,15.94
2018-10-19T15:35:48.365Z,15.87
2018-10-19T15:38:16.750Z,15.80
2018-10-19T15:40:45.094Z,15.75
2018-10-19T15:43:13.514Z,15.70
2018-10-19T15:45:41.877Z,15.60
2018-10-19T15:48:10.342Z,15.54
2018-10-19T15:50:38.634Z,15.50
2018-10-19T15:53:07.102Z,15.46
2018-10-19T15:55:35.406Z,15.46
2018-10-19T15:58:03.723Z,15.41
2018-10-19T16:00:32.060Z,15.37
2018-10-19T16:03:00.490Z,15.33
2018-10-19T16:05:28.827Z,15.30
2018-10-19T16:07:57.387Z,15.24
2018-10-19T16:10:26.151Z,15.19
2018-10-19T16:12:54.535Z,15.13
2018-10-19T16:15:22.801Z,15.09
2018-10-19T16:17:51.252Z,15.02
2018-10-19T16:20:19.587Z,14.96
2018-10-19T16:22:47.963Z,14.93
2018-10-19T16:25:16.370Z,14.90
2018-10-19T16:27:44.679Z,14.86
2018-10-19T16:30:13.068Z,14.82
2018-10-19T16:32:41.406Z,14.80
2018-10-19T16:35:09.763Z,14.74
2018-10-19T16:37:39.279Z,14.70
2018-10-19T16:40:07.970Z,14.68
2018-10-19T16:42:36.312Z,14.64
2018-10-19T16:45:05.027Z,14.57
2018-10-19T16:47:33.525Z,14.56
2018-10-19T16:50:02.367Z,14.54
2018-10-19T16:52:30.845Z,14.55
2018-10-19T16:54:59.198Z,14.54
2018-10-19T16:57:27.495Z,14.54
2018-10-19T16:59:55.871Z,14.54
2018-10-19T17:02:24.199Z,14.52
2018-10-19T17:04:52.568Z,14.50
2018-10-19T17:07:20.946Z,14.48
2018-10-19T17:09:49.313Z,14.47
2018-10-19T17:12:18.571Z,14.47
2018-10-19T17:14:46.893Z,14.48
2018-10-19T17:17:15.304Z,14.49
2018-10-19T17:19:43.765Z,14.45
2018-10-19T17:22:12.185Z,14.47
2018-10-19T17:24:40.716Z,14.46
2018-10-19T17:27:09.157Z,14.45
2018-10-19T17:29:37.477Z,14.44
2018-10-19T17:32:05.996Z,14.45
2018-10-19T17:34:35.331Z,14.46
2018-10-19T17:37:03.831Z,14.45
2018-10-19T17:39:32.147Z,14.45
2018-10-19T17:42:00.703Z,14.44
2018-10-19T17:44:29.092Z,14.42
2018-10-19T17:46:57.499Z,14.40
2018-10-19T17:49:25.826Z,14.38
2018-10-19T17:51:54.122Z,14.35
2018-10-19T17:54:22.623Z,14.35
2018-10-19T17:56:51.894Z,14.35
2018-10-19T17:59:20.289Z,14.35
2018-10-19T18:01:48.850Z,14.32
2018-10-19T18:04:17.204Z,14.30
2018-10-19T18:06:45.618Z,14.24
2018-10-19T18:09:14.127Z,14.20
2018-10-19T18:11:42.574Z,14.17
2018-10-19T18:14:10.938Z,14.12
2018-10-19T18:16:40.040Z,14.05
2018-10-19T18:19:08.378Z,14.01
2018-10-19T18:21:36.821Z,13.96
2018-10-19T18:24:05.550Z,13.94
2018-10-19T18:26:33.957Z,13.95
2018-10-19T18:29:02.435Z,13.95
2018-10-19T18:31:30.712Z,13.94
2018-10-19T18:33:59.009Z,13.84
2018-10-19T18:36:27.598Z,13.81
2018-10-19T18:38:56.043Z,13.79
2018-10-19T18:41:24.483Z,13.79
2018-10-19T18:43:52.891Z,13.76
2018-10-19T18:46:21.335Z,13.67
2018-10-19T18:48:49.681Z,13.60
2018-10-19T18:51:18.066Z,13.59
2018-10-19T18:53:46.460Z,13.61
2018-10-19T18:56:14.939Z,13.61
2018-10-19T18:58:43.140Z,13.57
2018-10-19T19:01:11.490Z,13.58
2018-10-19T19:03:39.949Z,13.55
2018-10-19T19:06:08.486Z,13.38
2018-10-19T19:08:36.935Z,13.29
2018-10-19T19:11:05.431Z,13.23
2018-10-19T19:13:33.788Z,13.20
2018-10-19T19:16:02.334Z,13.17
2018-10-19T19:18:30.718Z,13.09
2018-10-19T19:20:59.999Z,13.11
2018-10-19T19:23:28.358Z,13.13
2018-10-19T19:26:01.992Z,13.17
2018-10-19T19:28:30.440Z,13.16
2018-10-19T19:30:58.886Z,13.17
2018-10-19T19:33:32.462Z,13.16
2018-10-19T19:36:00.799Z,13.16
2018-10-19T19:38:29.123Z,13.21
2018-10-19T19:41:02.772Z,13.21
2018-10-19T19:43:31.081Z,13.20
2018-10-19T19:45:59.510Z,13.18
2018-10-19T19:48:33.350Z,13.18
2018-10-19T19:51:01.851Z,13.18
2018-10-19T19:53:30.146Z,13.16
2018-10-19T19:55:58.876Z,13.18
2018-10-19T19:58:27.143Z,13.17
2018-10-19T20:00:55.479Z,13.14
2018-10-19T20:03:23.915Z,13.15
2018-10-19T20:05:52.284Z,13.15
2018-10-19T20:08:20.595Z,13.13
2018-10-19T20:10:48.951Z,13.10
2018-10-19T20:13:17.295Z,13.07
2018-10-19T20:15:45.575Z,13.05
2018-10-19T20:18:14.051Z,13.05
2018-10-19T20:20:42.323Z,13.02
2018-10-19T20:23:10.761Z,12.93
2018-10-19T20:25:39.091Z,12.85
2018-10-19T20:28:07.443Z,12.78
2018-10-19T20:30:35.905Z,12.73
2018-10-19T20:33:05.107Z,12.65
2018-10-19T20:35:33.485Z,12.62
2018-10-19T20:38:02.026Z,12.62
2018-10-19T20:40:30.261Z,12.64
2018-10-19T20:42:58.576Z,12.69
2018-10-19T20:45:26.864Z,12.71
2018-10-19T20:47:55.238Z,12.73
2018-10-19T20:50:23.546Z,12.74
2018-10-19T20:52:51.932Z,12.72
2018-10-19T20:55:20.296Z,12.69
2018-10-19T20:57:48.565Z,12.65
2018-10-19T21:00:16.898Z,12.66
2018-10-19T21:02:45.350Z,12.69
2018-10-19T21:05:14.678Z,12.67
2018-10-19T21:07:43.006Z,12.71
2018-10-19T21:10:12.705Z,12.68
2018-10-19T21:12:40.983Z,12.64
2018-10-19T21:15:13.594Z,12.61
2018-10-19T21:17:42.644Z,12.56
2018-10-19T21:20:12.279Z,12.57
2018-10-19T21:22:40.627Z,12.55
2018-10-19T21:25:10.851Z,12.54
2018-10-19T21:27:39.382Z,12.51
2018-10-19T21:30:09.211Z,12.40
2018-10-19T21:32:37.842Z,12.36
2018-10-19T21:35:06.323Z,12.34
2018-10-19T21:37:34.781Z,12.34
2018-10-19T21:40:03.107Z,12.29
2018-10-19T21:42:31.446Z,12.29
2018-10-19T21:44:59.770Z,12.30
2018-10-19T21:47:28.495Z,12.33
2018-10-19T21:49:56.866Z,12.34
2018-10-19T21:52:25.198Z,12.32
2018-10-19T21:54:53.493Z,12.28
2018-10-19T21:57:23.057Z,12.28
2018-10-19T21:59:51.516Z,12.27
2018-10-19T22:02:20.025Z,12.27
2018-10-19T22:04:48.629Z,12.27
2018-10-19T22:07:16.974Z,12.24
2018-10-19T22:09:45.304Z,12.26
2018-10-19T22:12:13.988Z,12.27
2018-10-19T22:14:42.327Z,12.28
2018-10-19T22:17:10.859Z,12.31
2018-10-19T22:19:39.227Z,12.31
2018-10-19T22:22:07.546Z,12.31
2018-10-19T22:24:36.098Z,12.29
2018-10-19T22:27:04.666Z,12.26
2018-10-19T22:29:33.190Z,12.27
2018-10-19T22:32:01.489Z,12.29
2018-10-19T22:34:29.797Z,12.30
2018-10-19T22:36:58.152Z,12.27
2018-10-19T22:39:26.498Z,12.27
2018-10-19T22:41:54.948Z,12.25
2018-10-19T22:44:23.753Z,12.28
2018-10-19T22:46:52.222Z,12.28
2018-10-19T22:49:20.602Z,12.28
2018-10-19T22:51:48.996Z,12.21
2018-10-19T22:54:17.316Z,12.18
2018-10-19T22:56:46.164Z,12.15
2018-10-19T22:59:14.580Z,12.18
2018-10-19T23:01:42.875Z,12.22
2018-10-19T23:04:11.141Z,12.26
2018-10-19T23:06:39.474Z,12.26
2018-10-19T23:09:09.622Z,12.27
2018-10-19T23:11:37.944Z,12.30
2018-10-19T23:14:06.620Z,12.34
2018-10-19T23:16:35.032Z,12.39
2018-10-19T23:19:03.384Z,12.37
2018-10-19T23:21:31.730Z,12.34
2018-10-19T23:24:00.022Z,12.31
2018-10-19T23:26:28.406Z,12.30
2018-10-19T23:28:56.727Z,12.24
2018-10-19T23:31:25.116Z,12.20
2018-10-19T23:33:53.398Z,12.13
2018-10-19T23:36:21.685Z,12.07
2018-10-19T23:38:50.022Z,12.04
2018-10-19T23:41:18.370Z,12.06
2018-10-19T23:43:46.731Z,12.10
2018-10-19T23:46:15.018Z,12.17
2018-10-19T23:48:43.397Z,12.17
2018-10-19T23:51:11.966Z,12.18
2018-10-19T23:53:40.354Z,12.17
2018-10-19T23:56:08.839Z,12.16
2018-10-19T23:58:37.170Z,12.16
